sensor_id;sensor_type;location;lat;lon;timestamp;P1;durP1;ratioP1;P2;durP2;ratioP2
10872;SDS011;34586;53.616;10.032;2022-12-20T00:00:42;7.60;;;6.20;;
10872;SDS011;34586;53.616;10.032;2022-12-20T00:03:07;8.60;;;6.87;;
10872;SDS011;34586;53.616;10.032;2022-12-20T00:05:36;8.50;;;6.50;;
10872;SDS011;34586;53.616;10.032;2022-12-20T00:08:03;9.20;;;6.23;;
10872;SDS011;34586;53.616;10.032;2022-12-20T00:10:29;8.17;;;6.50;;
10872;SDS011;34586;53.616;10.032;2022-12-20T00:12:54;9.23;;;6.37;;
10872;SDS011;34586;53.616;10.032;2022-12-20T00:15:20;6.87;;;5.73;;
10872;SDS011;34586;53.616;10.032;2022-12-20T00:17:45;7.57;;;5.97;;
10872;SDS011;34586;53.616;10.032;2022-12-20T00:20:11;8.20;;;6.10;;
10872;SDS011;34586;53.616;10.032;2022-12-20T00:22:37;7.40;;;5.53;;
10872;SDS011;34586;53.616;10.032;2022-12-20T00:25:03;8.23;;;6.17;;
10872;SDS011;34586;53.616;10.032;2022-12-20T00:27:29;8.67;;;5.63;;
10872;SDS011;34586;53.616;10.032;2022-12-20T00:29:55;11.20;;;6.10;;
10872;SDS011;34586;53.616;10.032;2022-12-20T00:32:20;7.30;;;6.07;;
10872;SDS011;34586;53.616;10.032;2022-12-20T00:34:46;6.23;;;5.50;;
10872;SDS011;34586;53.616;10.032;2022-12-20T00:37:11;7.23;;;5.93;;
10872;SDS011;34586;53.616;10.032;2022-12-20T00:39:37;6.67;;;5.90;;
10872;SDS011;34586;53.616;10.032;2022-12-20T00:42:03;8.20;;;6.60;;
10872;SDS011;34586;53.616;10.032;2022-12-20T00:44:28;6.70;;;5.90;;
10872;SDS011;34586;53.616;10.032;2022-12-20T00:46:54;7.60;;;6.27;;
10872;SDS011;34586;53.616;10.032;2022-12-20T00:49:20;7.90;;;6.50;;
10872;SDS011;34586;53.616;10.032;2022-12-20T00:51:45;7.23;;;5.57;;
10872;SDS011;34586;53.616;10.032;2022-12-20T00:54:11;7.97;;;6.10;;
10872;SDS011;34586;53.616;10.032;2022-12-20T00:56:36;7.77;;;6.20;;
10872;SDS011;34586;53.616;10.032;2022-12-20T00:59:02;7.03;;;5.60;;
10872;SDS011;34586;53.616;10.032;2022-12-20T01:01:29;7.30;;;6.33;;
10872;SDS011;34586;53.616;10.032;2022-12-20T01:03:57;6.40;;;5.63;;
10872;SDS011;34586;53.616;10.032;2022-12-20T01:06:23;10.73;;;6.47;;
10872;SDS011;34586;53.616;10.032;2022-12-20T01:08:50;9.33;;;5.93;;
10872;SDS011;34586;53.616;10.032;2022-12-20T01:11:21;7.30;;;6.30;;
10872;SDS011;34586;53.616;10.032;2022-12-20T01:13:52;6.67;;;6.07;;
10872;SDS011;34586;53.616;10.032;2022-12-20T01:16:23;8.03;;;6.00;;
10872;SDS011;34586;53.616;10.032;2022-12-20T01:18:50;7.03;;;6.33;;
10872;SDS011;34586;53.616;10.032;2022-12-20T01:21:17;8.23;;;6.63;;
10872;SDS011;34586;53.616;10.032;2022-12-20T01:23:45;7.23;;;5.73;;
10872;SDS011;34586;53.616;10.032;2022-12-20T01:26:12;6.97;;;6.27;;
10872;SDS011;34586;53.616;10.032;2022-12-20T01:28:41;8.57;;;6.60;;
10872;SDS011;34586;53.616;10.032;2022-12-20T01:31:08;8.23;;;6.23;;
10872;SDS011;34586;53.616;10.032;2022-12-20T01:33:36;6.97;;;6.07;;
10872;SDS011;34586;53.616;10.032;2022-12-20T01:36:02;8.40;;;6.60;;
10872;SDS011;34586;53.616;10.032;2022-12-20T01:38:30;10.67;;;6.20;;
10872;SDS011;34586;53.616;10.032;2022-12-20T01:40:56;6.63;;;5.67;;
10872;SDS011;34586;53.616;10.032;2022-12-20T01:43:22;8.80;;;5.80;;
10872;SDS011;34586;53.616;10.032;2022-12-20T01:45:50;7.60;;;5.90;;
10872;SDS011;34586;53.616;10.032;2022-12-20T01:48:20;7.03;;;5.90;;
10872;SDS011;34586;53.616;10.032;2022-12-20T01:50:50;8.30;;;5.80;;
10872;SDS011;34586;53.616;10.032;2022-12-20T01:53:17;8.10;;;5.70;;
10872;SDS011;34586;53.616;10.032;2022-12-20T01:55:46;6.10;;;5.50;;
10872;SDS011;34586;53.616;10.032;2022-12-20T01:58:12;6.30;;;5.20;;
10872;SDS011;34586;53.616;10.032;2022-12-20T02:00:40;6.53;;;5.30;;
10872;SDS011;34586;53.616;10.032;2022-12-20T02:03:07;9.70;;;6.10;;
10872;SDS011;34586;53.616;10.032;2022-12-20T02:05:38;8.37;;;5.57;;
10872;SDS011;34586;53.616;10.032;2022-12-20T02:08:06;6.40;;;5.37;;
10872;SDS011;34586;53.616;10.032;2022-12-20T02:13:09;5.57;;;5.00;;
10872;SDS011;34586;53.616;10.032;2022-12-20T02:15:52;6.67;;;5.30;;
10872;SDS011;34586;53.616;10.032;2022-12-20T02:21:23;7.53;;;5.60;;
10872;SDS011;34586;53.616;10.032;2022-12-20T02:32:35;5.30;;;4.80;;
10872;SDS011;34586;53.616;10.032;2022-12-20T02:35:04;5.87;;;5.27;;
10872;SDS011;34586;53.616;10.032;2022-12-20T02:37:31;5.60;;;5.03;;
10872;SDS011;34586;53.616;10.032;2022-12-20T02:39:57;6.93;;;5.20;;
10872;SDS011;34586;53.616;10.032;2022-12-20T02:42:23;6.60;;;5.30;;
10872;SDS011;34586;53.616;10.032;2022-12-20T02:44:59;6.03;;;5.40;;
10872;SDS011;34586;53.616;10.032;2022-12-20T02:47:44;9.07;;;5.73;;
10872;SDS011;34586;53.616;10.032;2022-12-20T02:50:22;7.03;;;5.67;;
10872;SDS011;34586;53.616;10.032;2022-12-20T02:53:02;7.90;;;5.10;;
10872;SDS011;34586;53.616;10.032;2022-12-20T02:58:32;6.43;;;4.90;;
10872;SDS011;34586;53.616;10.032;2022-12-20T03:01:03;6.37;;;5.13;;
10872;SDS011;34586;53.616;10.032;2022-12-20T03:03:33;7.63;;;5.27;;
10872;SDS011;34586;53.616;10.032;2022-12-20T03:05:59;6.00;;;5.00;;
10872;SDS011;34586;53.616;10.032;2022-12-20T03:08:25;7.47;;;4.87;;
10872;SDS011;34586;53.616;10.032;2022-12-20T03:10:52;5.83;;;4.93;;
10872;SDS011;34586;53.616;10.032;2022-12-20T03:13:18;6.07;;;4.30;;
10872;SDS011;34586;53.616;10.032;2022-12-20T03:15:45;7.77;;;5.10;;
10872;SDS011;34586;53.616;10.032;2022-12-20T03:18:10;7.97;;;4.70;;
10872;SDS011;34586;53.616;10.032;2022-12-20T03:20:36;6.47;;;4.80;;
10872;SDS011;34586;53.616;10.032;2022-12-20T03:23:02;5.60;;;5.10;;
10872;SDS011;34586;53.616;10.032;2022-12-20T03:25:28;6.13;;;4.67;;
10872;SDS011;34586;53.616;10.032;2022-12-20T03:27:53;7.37;;;5.17;;
10872;SDS011;34586;53.616;10.032;2022-12-20T03:30:19;5.73;;;4.50;;
10872;SDS011;34586;53.616;10.032;2022-12-20T03:32:44;6.10;;;4.50;;
10872;SDS011;34586;53.616;10.032;2022-12-20T03:35:10;5.70;;;4.30;;
10872;SDS011;34586;53.616;10.032;2022-12-20T03:37:36;4.87;;;4.33;;
10872;SDS011;34586;53.616;10.032;2022-12-20T03:40:01;4.83;;;4.33;;
10872;SDS011;34586;53.616;10.032;2022-12-20T03:42:28;4.87;;;4.37;;
10872;SDS011;34586;53.616;10.032;2022-12-20T03:44:53;4.40;;;4.00;;
10872;SDS011;34586;53.616;10.032;2022-12-20T03:47:19;4.37;;;3.97;;
10872;SDS011;34586;53.616;10.032;2022-12-20T03:49:44;5.67;;;4.00;;
10872;SDS011;34586;53.616;10.032;2022-12-20T03:52:11;5.23;;;3.87;;
10872;SDS011;34586;53.616;10.032;2022-12-20T03:54:37;5.23;;;4.00;;
10872;SDS011;34586;53.616;10.032;2022-12-20T03:57:03;4.30;;;3.60;;
10872;SDS011;34586;53.616;10.032;2022-12-20T03:59:29;6.67;;;3.67;;
10872;SDS011;34586;53.616;10.032;2022-12-20T04:01:54;7.30;;;4.17;;
10872;SDS011;34586;53.616;10.032;2022-12-20T04:04:20;6.77;;;4.10;;
10872;SDS011;34586;53.616;10.032;2022-12-20T04:06:46;4.87;;;3.90;;
10872;SDS011;34586;53.616;10.032;2022-12-20T04:09:12;5.60;;;3.80;;
10872;SDS011;34586;53.616;10.032;2022-12-20T04:11:38;6.03;;;3.63;;
10872;SDS011;34586;53.616;10.032;2022-12-20T04:14:03;5.77;;;4.17;;
10872;SDS011;34586;53.616;10.032;2022-12-20T04:16:30;5.03;;;3.40;;
10872;SDS011;34586;53.616;10.032;2022-12-20T04:18:56;6.57;;;3.43;;
10872;SDS011;34586;53.616;10.032;2022-12-20T04:21:29;3.80;;;3.40;;
10872;SDS011;34586;53.616;10.032;2022-12-20T04:23:57;3.63;;;3.33;;
10872;SDS011;34586;53.616;10.032;2022-12-20T04:26:24;6.87;;;3.63;;
10872;SDS011;34586;53.616;10.032;2022-12-20T04:28:49;3.97;;;3.43;;
10872;SDS011;34586;53.616;10.032;2022-12-20T04:31:15;4.93;;;3.30;;
10872;SDS011;34586;53.616;10.032;2022-12-20T04:33:41;3.87;;;3.47;;
10872;SDS011;34586;53.616;10.032;2022-12-20T04:36:07;3.50;;;3.20;;
10872;SDS011;34586;53.616;10.032;2022-12-20T04:38:33;4.87;;;3.47;;
10872;SDS011;34586;53.616;10.032;2022-12-20T04:40:59;6.13;;;3.07;;
10872;SDS011;34586;53.616;10.032;2022-12-20T04:43:24;3.40;;;2.90;;
10872;SDS011;34586;53.616;10.032;2022-12-20T04:45:51;4.90;;;3.50;;
10872;SDS011;34586;53.616;10.032;2022-12-20T04:48:19;4.07;;;3.37;;
10872;SDS011;34586;53.616;10.032;2022-12-20T04:50:48;3.97;;;3.03;;
10872;SDS011;34586;53.616;10.032;2022-12-20T04:53:14;3.50;;;3.20;;
10872;SDS011;34586;53.616;10.032;2022-12-20T04:55:58;5.63;;;3.40;;
10872;SDS011;34586;53.616;10.032;2022-12-20T04:58:24;6.53;;;3.40;;
10872;SDS011;34586;53.616;10.032;2022-12-20T05:00:50;5.43;;;3.53;;
10872;SDS011;34586;53.616;10.032;2022-12-20T05:03:16;5.43;;;3.37;;
10872;SDS011;34586;53.616;10.032;2022-12-20T05:05:43;4.10;;;3.50;;
10872;SDS011;34586;53.616;10.032;2022-12-20T05:08:08;6.50;;;4.10;;
10872;SDS011;34586;53.616;10.032;2022-12-20T05:10:35;6.63;;;3.87;;
10872;SDS011;34586;53.616;10.032;2022-12-20T05:13:00;3.80;;;3.50;;
10872;SDS011;34586;53.616;10.032;2022-12-20T05:15:26;4.87;;;3.83;;
10872;SDS011;34586;53.616;10.032;2022-12-20T05:17:52;5.40;;;3.60;;
10872;SDS011;34586;53.616;10.032;2022-12-20T05:20:23;5.33;;;3.67;;
10872;SDS011;34586;53.616;10.032;2022-12-20T05:22:52;4.10;;;3.50;;
10872;SDS011;34586;53.616;10.032;2022-12-20T05:25:37;5.37;;;4.10;;
10872;SDS011;34586;53.616;10.032;2022-12-20T05:28:29;4.37;;;3.33;;
10872;SDS011;34586;53.616;10.032;2022-12-20T05:30:55;6.93;;;3.87;;
10872;SDS011;34586;53.616;10.032;2022-12-20T05:33:21;7.17;;;3.97;;
10872;SDS011;34586;53.616;10.032;2022-12-20T05:35:47;5.77;;;3.90;;
10872;SDS011;34586;53.616;10.032;2022-12-20T05:38:12;4.47;;;4.00;;
10872;SDS011;34586;53.616;10.032;2022-12-20T05:40:38;6.23;;;3.83;;
10872;SDS011;34586;53.616;10.032;2022-12-20T05:43:05;4.17;;;3.53;;
10872;SDS011;34586;53.616;10.032;2022-12-20T05:45:31;5.33;;;3.80;;
10872;SDS011;34586;53.616;10.032;2022-12-20T05:47:56;4.77;;;3.87;;
10872;SDS011;34586;53.616;10.032;2022-12-20T05:50:22;6.07;;;3.50;;
10872;SDS011;34586;53.616;10.032;2022-12-20T05:52:48;5.23;;;4.00;;
10872;SDS011;34586;53.616;10.032;2022-12-20T05:55:14;6.33;;;4.07;;
10872;SDS011;34586;53.616;10.032;2022-12-20T05:57:39;6.37;;;3.43;;
10872;SDS011;34586;53.616;10.032;2022-12-20T06:00:05;6.73;;;3.77;;
10872;SDS011;34586;53.616;10.032;2022-12-20T06:02:32;6.33;;;4.50;;
10872;SDS011;34586;53.616;10.032;2022-12-20T06:04:57;6.87;;;4.20;;
10872;SDS011;34586;53.616;10.032;2022-12-20T06:07:23;5.10;;;3.73;;
10872;SDS011;34586;53.616;10.032;2022-12-20T06:09:49;4.93;;;3.90;;
10872;SDS011;34586;53.616;10.032;2022-12-20T06:12:15;6.40;;;3.73;;
10872;SDS011;34586;53.616;10.032;2022-12-20T06:14:41;4.33;;;3.60;;
10872;SDS011;34586;53.616;10.032;2022-12-20T06:17:06;6.60;;;4.60;;
10872;SDS011;34586;53.616;10.032;2022-12-20T06:19:32;7.23;;;4.40;;
10872;SDS011;34586;53.616;10.032;2022-12-20T06:21:58;5.27;;;4.30;;
10872;SDS011;34586;53.616;10.032;2022-12-20T06:24:25;4.40;;;4.00;;
10872;SDS011;34586;53.616;10.032;2022-12-20T06:26:51;6.20;;;5.07;;
10872;SDS011;34586;53.616;10.032;2022-12-20T06:29:16;7.90;;;4.60;;
10872;SDS011;34586;53.616;10.032;2022-12-20T06:31:44;5.17;;;4.20;;
10872;SDS011;34586;53.616;10.032;2022-12-20T06:34:10;5.37;;;4.70;;
10872;SDS011;34586;53.616;10.032;2022-12-20T06:36:36;6.63;;;4.93;;
10872;SDS011;34586;53.616;10.032;2022-12-20T06:39:02;6.90;;;4.40;;
10872;SDS011;34586;53.616;10.032;2022-12-20T06:41:27;5.93;;;4.90;;
10872;SDS011;34586;53.616;10.032;2022-12-20T06:43:53;5.43;;;4.80;;
10872;SDS011;34586;53.616;10.032;2022-12-20T06:46:18;6.93;;;4.60;;
10872;SDS011;34586;53.616;10.032;2022-12-20T06:48:44;8.10;;;4.90;;
10872;SDS011;34586;53.616;10.032;2022-12-20T06:51:10;5.10;;;4.50;;
10872;SDS011;34586;53.616;10.032;2022-12-20T06:53:35;8.90;;;5.30;;
10872;SDS011;34586;53.616;10.032;2022-12-20T06:56:01;5.80;;;4.70;;
10872;SDS011;34586;53.616;10.032;2022-12-20T06:58:26;4.93;;;4.07;;
10872;SDS011;34586;53.616;10.032;2022-12-20T07:00:53;6.43;;;4.70;;
10872;SDS011;34586;53.616;10.032;2022-12-20T07:03:18;6.57;;;4.50;;
10872;SDS011;34586;53.616;10.032;2022-12-20T07:05:45;6.77;;;4.77;;
10872;SDS011;34586;53.616;10.032;2022-12-20T07:08:16;4.90;;;4.13;;
10872;SDS011;34586;53.616;10.032;2022-12-20T07:10:43;5.63;;;4.30;;
10872;SDS011;34586;53.616;10.032;2022-12-20T07:13:09;7.20;;;4.80;;
10872;SDS011;34586;53.616;10.032;2022-12-20T07:15:34;5.57;;;4.43;;
10872;SDS011;34586;53.616;10.032;2022-12-20T07:18:00;5.47;;;4.67;;
10872;SDS011;34586;53.616;10.032;2022-12-20T07:20:26;6.17;;;5.20;;
10872;SDS011;34586;53.616;10.032;2022-12-20T07:22:51;6.63;;;5.40;;
10872;SDS011;34586;53.616;10.032;2022-12-20T07:25:17;9.53;;;5.10;;
10872;SDS011;34586;53.616;10.032;2022-12-20T07:27:45;5.97;;;5.30;;
10872;SDS011;34586;53.616;10.032;2022-12-20T07:30:13;6.63;;;5.03;;
10872;SDS011;34586;53.616;10.032;2022-12-20T07:32:39;7.17;;;5.07;;
10872;SDS011;34586;53.616;10.032;2022-12-20T07:35:05;6.20;;;4.87;;
10872;SDS011;34586;53.616;10.032;2022-12-20T07:37:31;7.00;;;5.37;;
10872;SDS011;34586;53.616;10.032;2022-12-20T07:39:57;10.07;;;5.30;;
10872;SDS011;34586;53.616;10.032;2022-12-20T07:42:22;7.50;;;5.27;;
10872;SDS011;34586;53.616;10.032;2022-12-20T07:44:48;7.53;;;5.73;;
10872;SDS011;34586;53.616;10.032;2022-12-20T07:47:14;7.60;;;5.23;;
10872;SDS011;34586;53.616;10.032;2022-12-20T07:49:39;6.43;;;5.77;;
10872;SDS011;34586;53.616;10.032;2022-12-20T07:52:05;5.60;;;5.10;;
10872;SDS011;34586;53.616;10.032;2022-12-20T07:54:33;8.17;;;5.60;;
10872;SDS011;34586;53.616;10.032;2022-12-20T07:57:04;6.43;;;5.53;;
10872;SDS011;34586;53.616;10.032;2022-12-20T07:59:37;6.27;;;5.67;;
10872;SDS011;34586;53.616;10.032;2022-12-20T08:02:06;7.40;;;5.73;;
10872;SDS011;34586;53.616;10.032;2022-12-20T08:04:36;7.43;;;6.17;;
10872;SDS011;34586;53.616;10.032;2022-12-20T08:07:02;8.37;;;5.93;;
10872;SDS011;34586;53.616;10.032;2022-12-20T08:09:28;7.43;;;6.03;;
10872;SDS011;34586;53.616;10.032;2022-12-20T08:11:58;7.30;;;6.07;;
10872;SDS011;34586;53.616;10.032;2022-12-20T08:14:24;6.43;;;5.80;;
10872;SDS011;34586;53.616;10.032;2022-12-20T08:16:50;9.33;;;6.80;;
10872;SDS011;34586;53.616;10.032;2022-12-20T08:19:15;8.60;;;6.00;;
10872;SDS011;34586;53.616;10.032;2022-12-20T08:21:41;7.50;;;6.43;;
10872;SDS011;34586;53.616;10.032;2022-12-20T08:24:07;8.50;;;6.80;;
10872;SDS011;34586;53.616;10.032;2022-12-20T08:26:36;7.00;;;6.30;;
10872;SDS011;34586;53.616;10.032;2022-12-20T08:29:02;7.80;;;5.97;;
10872;SDS011;34586;53.616;10.032;2022-12-20T08:31:28;7.63;;;5.60;;
10872;SDS011;34586;53.616;10.032;2022-12-20T08:33:54;8.30;;;6.23;;
10872;SDS011;34586;53.616;10.032;2022-12-20T08:36:19;7.03;;;6.10;;
10872;SDS011;34586;53.616;10.032;2022-12-20T08:38:45;9.93;;;6.00;;
10872;SDS011;34586;53.616;10.032;2022-12-20T08:41:11;6.63;;;5.80;;
10872;SDS011;34586;53.616;10.032;2022-12-20T08:43:38;6.20;;;5.60;;
10872;SDS011;34586;53.616;10.032;2022-12-20T08:46:04;6.97;;;5.97;;
10872;SDS011;34586;53.616;10.032;2022-12-20T08:48:31;6.97;;;6.27;;
10872;SDS011;34586;53.616;10.032;2022-12-20T08:51:00;6.70;;;6.10;;
10872;SDS011;34586;53.616;10.032;2022-12-20T08:53:29;9.40;;;6.10;;
10872;SDS011;34586;53.616;10.032;2022-12-20T08:56:08;5.90;;;5.30;;
10872;SDS011;34586;53.616;10.032;2022-12-20T08:58:36;7.87;;;5.77;;
10872;SDS011;34586;53.616;10.032;2022-12-20T09:01:04;8.03;;;5.60;;
10872;SDS011;34586;53.616;10.032;2022-12-20T09:03:31;7.90;;;6.10;;
10872;SDS011;34586;53.616;10.032;2022-12-20T09:05:57;5.80;;;5.20;;
10872;SDS011;34586;53.616;10.032;2022-12-20T09:08:24;6.30;;;5.00;;
10872;SDS011;34586;53.616;10.032;2022-12-20T09:10:50;8.37;;;5.37;;
10872;SDS011;34586;53.616;10.032;2022-12-20T09:13:16;5.63;;;4.90;;
10872;SDS011;34586;53.616;10.032;2022-12-20T09:15:42;5.57;;;4.90;;
10872;SDS011;34586;53.616;10.032;2022-12-20T09:18:09;6.47;;;4.77;;
10872;SDS011;34586;53.616;10.032;2022-12-20T09:20:34;6.60;;;5.00;;
10872;SDS011;34586;53.616;10.032;2022-12-20T09:23:00;4.90;;;4.30;;
10872;SDS011;34586;53.616;10.032;2022-12-20T09:25:26;6.40;;;4.73;;
10872;SDS011;34586;53.616;10.032;2022-12-20T09:27:53;7.27;;;4.83;;
10872;SDS011;34586;53.616;10.032;2022-12-20T09:30:20;6.73;;;4.73;;
10872;SDS011;34586;53.616;10.032;2022-12-20T09:32:46;4.87;;;4.03;;
10872;SDS011;34586;53.616;10.032;2022-12-20T09:35:12;5.37;;;4.60;;
10872;SDS011;34586;53.616;10.032;2022-12-20T09:37:38;5.87;;;4.40;;
10872;SDS011;34586;53.616;10.032;2022-12-20T09:40:03;5.20;;;4.37;;
10872;SDS011;34586;53.616;10.032;2022-12-20T09:42:29;6.30;;;5.00;;
10872;SDS011;34586;53.616;10.032;2022-12-20T09:45:00;5.27;;;4.50;;
10872;SDS011;34586;53.616;10.032;2022-12-20T09:47:30;6.60;;;4.53;;
10872;SDS011;34586;53.616;10.032;2022-12-20T09:49:58;5.93;;;4.77;;
10872;SDS011;34586;53.616;10.032;2022-12-20T09:52:27;6.33;;;4.57;;
10872;SDS011;34586;53.616;10.032;2022-12-20T10:00:18;5.67;;;4.47;;
10872;SDS011;34586;53.616;10.032;2022-12-20T10:02:44;7.20;;;4.77;;
10872;SDS011;34586;53.616;10.032;2022-12-20T10:05:15;6.73;;;4.67;;
10872;SDS011;34586;53.616;10.032;2022-12-20T10:22:32;5.40;;;4.67;;
10872;SDS011;34586;53.616;10.032;2022-12-20T10:24:44;5.37;;;4.73;;
10872;SDS011;34586;53.616;10.032;2022-12-20T10:27:18;7.00;;;5.20;;
10872;SDS011;34586;53.616;10.032;2022-12-20T10:29:45;6.57;;;4.90;;
10872;SDS011;34586;53.616;10.032;2022-12-20T10:32:14;6.93;;;5.00;;
10872;SDS011;34586;53.616;10.032;2022-12-20T10:34:56;5.30;;;4.43;;
10872;SDS011;34586;53.616;10.032;2022-12-20T10:37:34;8.47;;;5.33;;
10872;SDS011;34586;53.616;10.032;2022-12-20T10:39:59;4.60;;;4.20;;
10872;SDS011;34586;53.616;10.032;2022-12-20T10:44:57;5.83;;;4.77;;
10872;SDS011;34586;53.616;10.032;2022-12-20T10:47:44;7.43;;;4.83;;
10872;SDS011;34586;53.616;10.032;2022-12-20T10:50:16;6.23;;;4.60;;
10872;SDS011;34586;53.616;10.032;2022-12-20T10:52:44;6.27;;;4.60;;
10872;SDS011;34586;53.616;10.032;2022-12-20T10:55:32;6.73;;;4.60;;
10872;SDS011;34586;53.616;10.032;2022-12-20T10:58:47;6.47;;;4.60;;
10872;SDS011;34586;53.616;10.032;2022-12-20T11:01:14;6.73;;;5.17;;
10872;SDS011;34586;53.616;10.032;2022-12-20T11:03:57;7.30;;;4.70;;
10872;SDS011;34586;53.616;10.032;2022-12-20T11:06:25;8.47;;;5.00;;
10872;SDS011;34586;53.616;10.032;2022-12-20T11:08:55;6.40;;;4.87;;
10872;SDS011;34586;53.616;10.032;2022-12-20T11:14:40;6.20;;;4.67;;
10872;SDS011;34586;53.616;10.032;2022-12-20T11:45:14;5.27;;;4.50;;
10872;SDS011;34586;53.616;10.032;2022-12-20T11:55:59;4.27;;;3.87;;
10872;SDS011;34586;53.616;10.032;2022-12-20T12:01:32;4.27;;;3.93;;
10872;SDS011;34586;53.616;10.032;2022-12-20T12:04:12;4.70;;;3.50;;
10872;SDS011;34586;53.616;10.032;2022-12-20T12:06:52;5.73;;;3.80;;
10872;SDS011;34586;53.616;10.032;2022-12-20T12:09:34;5.30;;;3.30;;
10872;SDS011;34586;53.616;10.032;2022-12-20T12:25:43;2.90;;;2.70;;
10872;SDS011;34586;53.616;10.032;2022-12-20T12:28:10;3.50;;;3.10;;
10872;SDS011;34586;53.616;10.032;2022-12-20T12:30:42;2.83;;;2.53;;
10872;SDS011;34586;53.616;10.032;2022-12-20T12:33:25;4.13;;;3.23;;
10872;SDS011;34586;53.616;10.032;2022-12-20T12:36:10;5.40;;;3.47;;
10872;SDS011;34586;53.616;10.032;2022-12-20T12:44:31;6.83;;;3.70;;
10872;SDS011;34586;53.616;10.032;2022-12-20T12:47:04;4.53;;;3.20;;
10872;SDS011;34586;53.616;10.032;2022-12-20T12:49:35;4.03;;;2.83;;
10872;SDS011;34586;53.616;10.032;2022-12-20T12:52:02;7.40;;;3.53;;
10872;SDS011;34586;53.616;10.032;2022-12-20T12:57:21;4.67;;;3.23;;
10872;SDS011;34586;53.616;10.032;2022-12-20T12:59:47;7.53;;;3.83;;
10872;SDS011;34586;53.616;10.032;2022-12-20T13:09:58;5.50;;;4.00;;
10872;SDS011;34586;53.616;10.032;2022-12-20T13:23:42;5.37;;;3.73;;
10872;SDS011;34586;53.616;10.032;2022-12-20T13:29:31;4.47;;;3.83;;
10872;SDS011;34586;53.616;10.032;2022-12-20T13:31:59;7.67;;;4.10;;
10872;SDS011;34586;53.616;10.032;2022-12-20T13:34:42;8.37;;;4.20;;
10872;SDS011;34586;53.616;10.032;2022-12-20T13:37:51;6.83;;;4.40;;
10872;SDS011;34586;53.616;10.032;2022-12-20T13:40:22;6.47;;;4.37;;
10872;SDS011;34586;53.616;10.032;2022-12-20T13:42:58;6.90;;;4.50;;
10872;SDS011;34586;53.616;10.032;2022-12-20T13:45:34;6.53;;;4.63;;
10872;SDS011;34586;53.616;10.032;2022-12-20T13:48:03;6.97;;;4.70;;
10872;SDS011;34586;53.616;10.032;2022-12-20T13:50:32;5.30;;;4.53;;
10872;SDS011;34586;53.616;10.032;2022-12-20T13:53:04;6.27;;;5.67;;
10872;SDS011;34586;53.616;10.032;2022-12-20T13:55:32;7.17;;;5.27;;
10872;SDS011;34586;53.616;10.032;2022-12-20T13:58:12;8.83;;;4.93;;
10872;SDS011;34586;53.616;10.032;2022-12-20T14:00:47;5.57;;;5.00;;
10872;SDS011;34586;53.616;10.032;2022-12-20T14:05:56;6.67;;;5.03;;
10872;SDS011;34586;53.616;10.032;2022-12-20T14:08:26;5.33;;;4.70;;
10872;SDS011;34586;53.616;10.032;2022-12-20T14:11:05;6.40;;;4.67;;
10872;SDS011;34586;53.616;10.032;2022-12-20T14:13:35;6.93;;;4.63;;
10872;SDS011;34586;53.616;10.032;2022-12-20T14:16:14;7.23;;;4.93;;
10872;SDS011;34586;53.616;10.032;2022-12-20T14:18:45;7.63;;;5.00;;
10872;SDS011;34586;53.616;10.032;2022-12-20T14:21:12;6.47;;;5.10;;
10872;SDS011;34586;53.616;10.032;2022-12-20T14:23:42;7.63;;;4.67;;
10872;SDS011;34586;53.616;10.032;2022-12-20T14:26:10;9.80;;;5.20;;
10872;SDS011;34586;53.616;10.032;2022-12-20T14:28:41;7.03;;;5.17;;
10872;SDS011;34586;53.616;10.032;2022-12-20T14:31:24;7.23;;;4.70;;
10872;SDS011;34586;53.616;10.032;2022-12-20T14:36:43;8.13;;;4.97;;
10872;SDS011;34586;53.616;10.032;2022-12-20T14:39:23;7.37;;;5.20;;
10872;SDS011;34586;53.616;10.032;2022-12-20T14:41:54;8.23;;;5.43;;
10872;SDS011;34586;53.616;10.032;2022-12-20T14:44:25;5.63;;;4.43;;
10872;SDS011;34586;53.616;10.032;2022-12-20T14:46:56;8.00;;;4.87;;
10872;SDS011;34586;53.616;10.032;2022-12-20T14:49:28;5.77;;;5.00;;
10872;SDS011;34586;53.616;10.032;2022-12-20T14:52:12;6.10;;;5.10;;
10872;SDS011;34586;53.616;10.032;2022-12-20T14:57:24;6.97;;;5.07;;
10872;SDS011;34586;53.616;10.032;2022-12-20T15:13:44;5.90;;;4.90;;
10872;SDS011;34586;53.616;10.032;2022-12-20T15:18:38;6.70;;;5.00;;
10872;SDS011;34586;53.616;10.032;2022-12-20T15:21:17;6.37;;;5.70;;
10872;SDS011;34586;53.616;10.032;2022-12-20T15:23:51;7.93;;;5.33;;
10872;SDS011;34586;53.616;10.032;2022-12-20T15:26:19;6.00;;;5.30;;
10872;SDS011;34586;53.616;10.032;2022-12-20T15:28:49;7.17;;;5.30;;
10872;SDS011;34586;53.616;10.032;2022-12-20T15:31:17;7.43;;;5.33;;
10872;SDS011;34586;53.616;10.032;2022-12-20T15:33:44;5.57;;;5.07;;
10872;SDS011;34586;53.616;10.032;2022-12-20T15:36:15;7.77;;;5.73;;
10872;SDS011;34586;53.616;10.032;2022-12-20T15:38:42;7.80;;;6.03;;
10872;SDS011;34586;53.616;10.032;2022-12-20T15:41:10;7.20;;;5.37;;
10872;SDS011;34586;53.616;10.032;2022-12-20T15:43:42;9.53;;;5.13;;
10872;SDS011;34586;53.616;10.032;2022-12-20T15:46:09;8.40;;;5.90;;
10872;SDS011;34586;53.616;10.032;2022-12-20T15:48:34;7.03;;;5.23;;
10872;SDS011;34586;53.616;10.032;2022-12-20T15:51:00;6.77;;;5.70;;
10872;SDS011;34586;53.616;10.032;2022-12-20T15:53:29;7.50;;;5.50;;
10872;SDS011;34586;53.616;10.032;2022-12-20T15:55:57;6.70;;;5.43;;
10872;SDS011;34586;53.616;10.032;2022-12-20T15:58:23;6.57;;;4.70;;
10872;SDS011;34586;53.616;10.032;2022-12-20T16:00:54;5.90;;;5.07;;
10872;SDS011;34586;53.616;10.032;2022-12-20T16:03:26;7.07;;;5.40;;
10872;SDS011;34586;53.616;10.032;2022-12-20T16:05:55;7.93;;;5.53;;
10872;SDS011;34586;53.616;10.032;2022-12-20T16:08:21;7.40;;;5.07;;
10872;SDS011;34586;53.616;10.032;2022-12-20T16:10:47;6.90;;;6.07;;
10872;SDS011;34586;53.616;10.032;2022-12-20T16:13:16;7.03;;;5.20;;
10872;SDS011;34586;53.616;10.032;2022-12-20T16:15:49;7.73;;;4.83;;
10872;SDS011;34586;53.616;10.032;2022-12-20T16:18:16;9.07;;;5.40;;
10872;SDS011;34586;53.616;10.032;2022-12-20T16:20:42;5.43;;;4.90;;
10872;SDS011;34586;53.616;10.032;2022-12-20T16:23:13;9.20;;;6.03;;
10872;SDS011;34586;53.616;10.032;2022-12-20T16:25:44;7.83;;;5.83;;
10872;SDS011;34586;53.616;10.032;2022-12-20T16:28:10;6.67;;;5.43;;
10872;SDS011;34586;53.616;10.032;2022-12-20T16:30:36;6.37;;;5.10;;
10872;SDS011;34586;53.616;10.032;2022-12-20T16:33:02;6.77;;;5.30;;
10872;SDS011;34586;53.616;10.032;2022-12-20T16:35:32;6.90;;;5.07;;
10872;SDS011;34586;53.616;10.032;2022-12-20T16:38:03;6.17;;;5.67;;
10872;SDS011;34586;53.616;10.032;2022-12-20T16:40:30;10.20;;;6.00;;
10872;SDS011;34586;53.616;10.032;2022-12-20T16:42:57;7.73;;;5.17;;
10872;SDS011;34586;53.616;10.032;2022-12-20T16:45:25;8.10;;;5.63;;
10872;SDS011;34586;53.616;10.032;2022-12-20T16:47:52;9.27;;;6.60;;
10872;SDS011;34586;53.616;10.032;2022-12-20T16:50:19;7.97;;;6.13;;
10872;SDS011;34586;53.616;10.032;2022-12-20T16:52:46;9.67;;;6.13;;
10872;SDS011;34586;53.616;10.032;2022-12-20T16:55:17;11.93;;;6.17;;
10872;SDS011;34586;53.616;10.032;2022-12-20T16:57:45;10.17;;;6.30;;
10872;SDS011;34586;53.616;10.032;2022-12-20T17:00:18;8.83;;;6.33;;
10872;SDS011;34586;53.616;10.032;2022-12-20T17:02:48;13.53;;;6.70;;
10872;SDS011;34586;53.616;10.032;2022-12-20T17:07:57;7.93;;;6.00;;
10872;SDS011;34586;53.616;10.032;2022-12-20T17:10:23;9.00;;;6.67;;
10872;SDS011;34586;53.616;10.032;2022-12-20T17:12:50;9.87;;;6.67;;
10872;SDS011;34586;53.616;10.032;2022-12-20T17:15:17;10.13;;;6.43;;